sensor_id;sensor_type;location;lat;lon;timestamp;temperature;humidity
21047;DHT22;10682;50.874;3.656;2022-11-15T00:01:08;11.90;99.90
21047;DHT22;10682;50.874;3.656;2022-11-15T00:03:36;11.90;99.90
21047;DHT22;10682;50.874;3.656;2022-11-15T00:06:04;11.90;99.90
21047;DHT22;10682;50.874;3.656;2022-11-15T00:08:32;11.80;99.90
21047;DHT22;10682;50.874;3.656;2022-11-15T00:11:01;11.80;99.90
21047;DHT22;10682;50.874;3.656;2022-11-15T00:13:30;11.80;99.90
21047;DHT22;10682;50.874;3.656;2022-11-15T00:15:58;11.80;99.90
21047;DHT22;10682;50.874;3.656;2022-11-15T00:18:26;11.90;99.90
21047;DHT22;10682;50.874;3.656;2022-11-15T00:20:54;11.80;99.90
21047;DHT22;10682;50.874;3.656;2022-11-15T00:23:21;11.90;99.90
21047;DHT22;10682;50.874;3.656;2022-11-15T00:25:55;11.90;99.90
21047;DHT22;10682;50.874;3.656;2022-11-15T00:28:24;11.90;99.90
21047;DHT22;10682;50.874;3.656;2022-11-15T00:30:52;11.80;99.90
21047;DHT22;10682;50.874;3.656;2022-11-15T00:33:19;11.80;99.90
21047;DHT22;10682;50.874;3.656;2022-11-15T00:35:46;11.80;99.90
21047;DHT22;10682;50.874;3.656;2022-11-15T00:38:13;11.80;99.90
21047;DHT22;10682;50.874;3.656;2022-11-15T00:40:41;11.80;99.90
21047;DHT22;10682;50.874;3.656;2022-11-15T00:43:08;11.80;99.90
21047;DHT22;10682;50.874;3.656;2022-11-15T00:45:36;11.80;99.90
21047;DHT22;10682;50.874;3.656;2022-11-15T00:48:04;11.70;99.90
21047;DHT22;10682;50.874;3.656;2022-11-15T00:50:31;11.70;99.90
21047;DHT22;10682;50.874;3.656;2022-11-15T00:52:58;11.70;99.90
21047;DHT22;10682;50.874;3.656;2022-11-15T00:55:24;11.80;99.90
21047;DHT22;10682;50.874;3.656;2022-11-15T00:57:51;11.80;99.90
21047;DHT22;10682;50.874;3.656;2022-11-15T01:00:18;11.70;99.90
21047;DHT22;10682;50.874;3.656;2022-11-15T01:02:45;11.80;99.90
21047;DHT22;10682;50.874;3.656;2022-11-15T01:05:12;11.70;99.90
21047;DHT22;10682;50.874;3.656;2022-11-15T01:07:39;11.80;99.90
21047;DHT22;10682;50.874;3.656;2022-11-15T01:10:06;11.70;99.90
21047;DHT22;10682;50.874;3.656;2022-11-15T01:12:34;11.70;99.90
21047;DHT22;10682;50.874;3.656;2022-11-15T01:15:01;11.70;99.90
21047;DHT22;10682;50.874;3.656;2022-11-15T01:17:30;11.70;99.90
21047;DHT22;10682;50.874;3.656;2022-11-15T01:19:57;11.70;99.90
21047;DHT22;10682;50.874;3.656;2022-11-15T01:22:24;11.70;99.90
21047;DHT22;10682;50.874;3.656;2022-11-15T01:24:51;11.70;99.90
21047;DHT22;10682;50.874;3.656;2022-11-15T01:27:18;11.70;99.90
21047;DHT22;10682;50.874;3.656;2022-11-15T01:29:45;11.70;99.90
21047;DHT22;10682;50.874;3.656;2022-11-15T01:32:12;11.70;99.90
21047;DHT22;10682;50.874;3.656;2022-11-15T01:34:39;11.70;99.90
21047;DHT22;10682;50.874;3.656;2022-11-15T01:37:06;11.70;99.90
21047;DHT22;10682;50.874;3.656;2022-11-15T01:39:33;11.70;99.90
21047;DHT22;10682;50.874;3.656;2022-11-15T01:42:00;11.70;99.90
21047;DHT22;10682;50.874;3.656;2022-11-15T01:44:47;11.60;99.90
21047;DHT22;10682;50.874;3.656;2022-11-15T01:47:18;11.60;99.90
21047;DHT22;10682;50.874;3.656;2022-11-15T01:52:32;11.60;99.90
21047;DHT22;10682;50.874;3.656;2022-11-15T01:55:05;11.60;99.90
21047;DHT22;10682;50.874;3.656;2022-11-15T01:57:33;11.60;99.90
21047;DHT22;10682;50.874;3.656;2022-11-15T02:00:03;11.60;99.90
21047;DHT22;10682;50.874;3.656;2022-11-15T02:02:32;11.50;99.90
21047;DHT22;10682;50.874;3.656;2022-11-15T02:05:00;11.50;99.90
21047;DHT22;10682;50.874;3.656;2022-11-15T02:07:28;11.60;99.90
21047;DHT22;10682;50.874;3.656;2022-11-15T02:09:58;11.50;99.90
21047;DHT22;10682;50.874;3.656;2022-11-15T02:12:29;11.50;99.90
21047;DHT22;10682;50.874;3.656;2022-11-15T02:14:58;11.50;99.90
21047;DHT22;10682;50.874;3.656;2022-11-15T02:31:45;11.50;99.90
21047;DHT22;10682;50.874;3.656;2022-11-15T02:37:16;11.50;99.90
21047;DHT22;10682;50.874;3.656;2022-11-15T02:42:35;11.40;99.90
21047;DHT22;10682;50.874;3.656;2022-11-15T02:45:26;11.40;99.90
21047;DHT22;10682;50.874;3.656;2022-11-15T02:47:57;11.30;99.90
21047;DHT22;10682;50.874;3.656;2022-11-15T02:50:28;11.30;99.90
21047;DHT22;10682;50.874;3.656;2022-11-15T02:52:56;11.30;99.90
21047;DHT22;10682;50.874;3.656;2022-11-15T02:55:36;11.30;99.90
21047;DHT22;10682;50.874;3.656;2022-11-15T03:09:32;11.20;99.90
21047;DHT22;10682;50.874;3.656;2022-11-15T03:12:28;11.20;99.90
21047;DHT22;10682;50.874;3.656;2022-11-15T03:15:05;11.20;99.90
21047;DHT22;10682;50.874;3.656;2022-11-15T03:17:51;11.20;99.90
21047;DHT22;10682;50.874;3.656;2022-11-15T03:20:24;11.10;99.90
21047;DHT22;10682;50.874;3.656;2022-11-15T03:22:53;11.10;99.90
21047;DHT22;10682;50.874;3.656;2022-11-15T03:25:24;11.10;99.90
21047;DHT22;10682;50.874;3.656;2022-11-15T03:27:56;11.00;99.90
21047;DHT22;10682;50.874;3.656;2022-11-15T03:30:25;11.00;99.90
21047;DHT22;10682;50.874;3.656;2022-11-15T03:32:56;10.90;99.90
21047;DHT22;10682;50.874;3.656;2022-11-15T03:35:27;10.90;99.90
21047;DHT22;10682;50.874;3.656;2022-11-15T03:38:25;10.90;99.90
21047;DHT22;10682;50.874;3.656;2022-11-15T03:41:01;10.80;99.90
21047;DHT22;10682;50.874;3.656;2022-11-15T03:43:59;10.80;99.90
21047;DHT22;10682;50.874;3.656;2022-11-15T03:46:47;10.70;99.90
21047;DHT22;10682;50.874;3.656;2022-11-15T03:49:27;10.70;99.90
21047;DHT22;10682;50.874;3.656;2022-11-15T03:51:58;10.60;99.90
21047;DHT22;10682;50.874;3.656;2022-11-15T03:54:25;10.60;99.90
21047;DHT22;10682;50.874;3.656;2022-11-15T03:56:52;10.60;99.90
21047;DHT22;10682;50.874;3.656;2022-11-15T03:59:19;10.50;99.90
21047;DHT22;10682;50.874;3.656;2022-11-15T04:01:55;10.50;99.90
21047;DHT22;10682;50.874;3.656;2022-11-15T04:04:22;10.50;99.90
21047;DHT22;10682;50.874;3.656;2022-11-15T04:06:49;10.50;99.90
21047;DHT22;10682;50.874;3.656;2022-11-15T04:09:16;10.40;99.90
21047;DHT22;10682;50.874;3.656;2022-11-15T04:11:43;10.40;99.90
21047;DHT22;10682;50.874;3.656;2022-11-15T04:14:10;10.30;99.90
21047;DHT22;10682;50.874;3.656;2022-11-15T04:16:37;10.30;99.90
21047;DHT22;10682;50.874;3.656;2022-11-15T04:19:09;10.20;99.90
21047;DHT22;10682;50.874;3.656;2022-11-15T04:21:55;10.20;99.90
21047;DHT22;10682;50.874;3.656;2022-11-15T04:24:40;10.30;99.90
21047;DHT22;10682;50.874;3.656;2022-11-15T04:27:07;10.20;99.90
21047;DHT22;10682;50.874;3.656;2022-11-15T04:29:34;10.20;99.90
21047;DHT22;10682;50.874;3.656;2022-11-15T04:32:03;10.10;99.90
21047;DHT22;10682;50.874;3.656;2022-11-15T04:34:31;10.20;99.90
21047;DHT22;10682;50.874;3.656;2022-11-15T04:36:58;10.10;99.90
21047;DHT22;10682;50.874;3.656;2022-11-15T04:39:43;10.20;99.90
21047;DHT22;10682;50.874;3.656;2022-11-15T04:42:10;10.20;99.90
21047;DHT22;10682;50.874;3.656;2022-11-15T04:44:37;10.10;99.90
21047;DHT22;10682;50.874;3.656;2022-11-15T04:47:04;10.10;99.90
21047;DHT22;10682;50.874;3.656;2022-11-15T04:49:32;10.10;99.90
21047;DHT22;10682;50.874;3.656;2022-11-15T04:51:59;10.10;99.90
21047;DHT22;10682;50.874;3.656;2022-11-15T04:54:27;10.10;99.90
21047;DHT22;10682;50.874;3.656;2022-11-15T04:56:54;10.10;99.90
21047;DHT22;10682;50.874;3.656;2022-11-15T04:59:20;10.10;99.90
21047;DHT22;10682;50.874;3.656;2022-11-15T05:01:48;10.00;99.90
21047;DHT22;10682;50.874;3.656;2022-11-15T05:04:14;10.00;99.90
21047;DHT22;10682;50.874;3.656;2022-11-15T05:06:49;10.00;99.90
21047;DHT22;10682;50.874;3.656;2022-11-15T05:09:20;10.00;99.90
21047;DHT22;10682;50.874;3.656;2022-11-15T05:11:48;9.90;99.90
21047;DHT22;10682;50.874;3.656;2022-11-15T05:14:15;9.90;99.90
21047;DHT22;10682;50.874;3.656;2022-11-15T05:16:42;9.90;99.90
21047;DHT22;10682;50.874;3.656;2022-11-15T05:19:10;9.90;99.90
21047;DHT22;10682;50.874;3.656;2022-11-15T05:21:37;9.90;99.90
21047;DHT22;10682;50.874;3.656;2022-11-15T05:24:04;9.90;99.90
21047;DHT22;10682;50.874;3.656;2022-11-15T05:26:32;9.90;99.90
21047;DHT22;10682;50.874;3.656;2022-11-15T05:28:59;9.80;99.90
21047;DHT22;10682;50.874;3.656;2022-11-15T05:31:26;9.80;99.90
21047;DHT22;10682;50.874;3.656;2022-11-15T05:33:55;9.80;99.90
21047;DHT22;10682;50.874;3.656;2022-11-15T05:36:42;9.70;99.90
21047;DHT22;10682;50.874;3.656;2022-11-15T05:39:09;9.70;99.90
21047;DHT22;10682;50.874;3.656;2022-11-15T05:41:37;9.70;99.90
21047;DHT22;10682;50.874;3.656;2022-11-15T05:44:10;9.60;99.90
21047;DHT22;10682;50.874;3.656;2022-11-15T05:46:39;9.60;99.90
21047;DHT22;10682;50.874;3.656;2022-11-15T05:49:11;9.60;99.90
21047;DHT22;10682;50.874;3.656;2022-11-15T05:51:39;9.50;99.90
21047;DHT22;10682;50.874;3.656;2022-11-15T05:54:09;9.50;99.90
21047;DHT22;10682;50.874;3.656;2022-11-15T05:56:37;9.50;99.90
21047;DHT22;10682;50.874;3.656;2022-11-15T05:59:04;9.50;99.90
21047;DHT22;10682;50.874;3.656;2022-11-15T06:01:32;9.50;99.90
21047;DHT22;10682;50.874;3.656;2022-11-15T06:03:59;9.40;99.90
21047;DHT22;10682;50.874;3.656;2022-11-15T06:06:28;9.40;99.90
21047;DHT22;10682;50.874;3.656;2022-11-15T06:08:55;9.40;99.90
21047;DHT22;10682;50.874;3.656;2022-11-15T06:11:22;9.40;99.90
21047;DHT22;10682;50.874;3.656;2022-11-15T06:13:49;9.40;99.90
21047;DHT22;10682;50.874;3.656;2022-11-15T06:16:16;9.30;99.90
21047;DHT22;10682;50.874;3.656;2022-11-15T06:18:43;9.30;99.90
21047;DHT22;10682;50.874;3.656;2022-11-15T06:21:10;9.30;99.90
21047;DHT22;10682;50.874;3.656;2022-11-15T06:23:37;9.30;99.90
21047;DHT22;10682;50.874;3.656;2022-11-15T06:26:04;9.30;99.90
21047;DHT22;10682;50.874;3.656;2022-11-15T06:28:32;9.30;99.90
21047;DHT22;10682;50.874;3.656;2022-11-15T06:31:10;9.20;99.90
21047;DHT22;10682;50.874;3.656;2022-11-15T06:33:38;9.20;99.90
21047;DHT22;10682;50.874;3.656;2022-11-15T06:36:09;9.20;99.90
21047;DHT22;10682;50.874;3.656;2022-11-15T06:38:44;9.20;99.90
21047;DHT22;10682;50.874;3.656;2022-11-15T06:41:13;9.10;99.90
21047;DHT22;10682;50.874;3.656;2022-11-15T06:43:41;9.10;99.90
21047;DHT22;10682;50.874;3.656;2022-11-15T06:46:08;9.10;99.90
21047;DHT22;10682;50.874;3.656;2022-11-15T06:48:35;9.10;99.90
21047;DHT22;10682;50.874;3.656;2022-11-15T06:51:04;9.20;99.90
21047;DHT22;10682;50.874;3.656;2022-11-15T06:53:31;9.20;99.90
21047;DHT22;10682;50.874;3.656;2022-11-15T06:56:04;9.20;99.90
21047;DHT22;10682;50.874;3.656;2022-11-15T06:58:33;9.20;99.90
21047;DHT22;10682;50.874;3.656;2022-11-15T07:01:06;9.20;99.90
21047;DHT22;10682;50.874;3.656;2022-11-15T07:03:36;9.20;99.90
21047;DHT22;10682;50.874;3.656;2022-11-15T07:06:05;9.30;99.90
21047;DHT22;10682;50.874;3.656;2022-11-15T07:08:34;9.40;99.90
21047;DHT22;10682;50.874;3.656;2022-11-15T07:11:03;9.40;99.90
21047;DHT22;10682;50.874;3.656;2022-11-15T07:13:32;9.40;99.90
21047;DHT22;10682;50.874;3.656;2022-11-15T07:16:05;9.40;99.90
21047;DHT22;10682;50.874;3.656;2022-11-15T07:18:39;9.50;99.90
21047;DHT22;10682;50.874;3.656;2022-11-15T07:21:09;9.60;99.90
21047;DHT22;10682;50.874;3.656;2022-11-15T07:23:38;9.60;99.90
21047;DHT22;10682;50.874;3.656;2022-11-15T07:26:07;9.60;99.90
21047;DHT22;10682;50.874;3.656;2022-11-15T07:28:35;9.70;99.90
21047;DHT22;10682;50.874;3.656;2022-11-15T07:31:07;9.70;99.90
21047;DHT22;10682;50.874;3.656;2022-11-15T07:33:35;9.70;99.90
21047;DHT22;10682;50.874;3.656;2022-11-15T07:36:04;9.70;99.90
21047;DHT22;10682;50.874;3.656;2022-11-15T07:38:33;9.80;99.90
21047;DHT22;10682;50.874;3.656;2022-11-15T07:41:08;9.90;99.90
21047;DHT22;10682;50.874;3.656;2022-11-15T07:43:35;10.20;99.90
21047;DHT22;10682;50.874;3.656;2022-11-15T07:46:07;10.20;99.90
21047;DHT22;10682;50.874;3.656;2022-11-15T07:48:37;10.20;99.90
21047;DHT22;10682;50.874;3.656;2022-11-15T07:51:12;10.20;99.90
21047;DHT22;10682;50.874;3.656;2022-11-15T07:53:42;10.20;99.90
21047;DHT22;10682;50.874;3.656;2022-11-15T07:56:10;10.30;99.90
21047;DHT22;10682;50.874;3.656;2022-11-15T07:58:37;10.60;99.90
21047;DHT22;10682;50.874;3.656;2022-11-15T08:01:05;10.90;99.90
21047;DHT22;10682;50.874;3.656;2022-11-15T08:03:34;11.20;99.90
21047;DHT22;10682;50.874;3.656;2022-11-15T08:06:01;11.60;99.90
21047;DHT22;10682;50.874;3.656;2022-11-15T08:08:29;11.90;99.90
21047;DHT22;10682;50.874;3.656;2022-11-15T08:10:57;12.10;99.90
21047;DHT22;10682;50.874;3.656;2022-11-15T08:13:25;12.10;99.90
21047;DHT22;10682;50.874;3.656;2022-11-15T08:15:52;12.00;99.90
21047;DHT22;10682;50.874;3.656;2022-11-15T08:18:24;11.80;99.90
21047;DHT22;10682;50.874;3.656;2022-11-15T08:20:51;11.70;99.90
21047;DHT22;10682;50.874;3.656;2022-11-15T08:23:18;11.50;99.90
21047;DHT22;10682;50.874;3.656;2022-11-15T08:25:45;11.30;99.90
21047;DHT22;10682;50.874;3.656;2022-11-15T08:28:12;11.10;99.90
21047;DHT22;10682;50.874;3.656;2022-11-15T08:30:40;10.90;99.90
21047;DHT22;10682;50.874;3.656;2022-11-15T08:33:13;10.80;99.90
21047;DHT22;10682;50.874;3.656;2022-11-15T08:35:41;10.70;99.90
21047;DHT22;10682;50.874;3.656;2022-11-15T08:38:09;10.60;99.90
21047;DHT22;10682;50.874;3.656;2022-11-15T08:40:37;11.00;99.90
21047;DHT22;10682;50.874;3.656;2022-11-15T08:43:04;11.90;99.90
21047;DHT22;10682;50.874;3.656;2022-11-15T08:45:34;12.70;99.90
21047;DHT22;10682;50.874;3.656;2022-11-15T08:48:02;13.10;99.90
21047;DHT22;10682;50.874;3.656;2022-11-15T08:50:30;13.30;99.90
21047;DHT22;10682;50.874;3.656;2022-11-15T08:52:57;13.50;99.90
21047;DHT22;10682;50.874;3.656;2022-11-15T08:55:24;13.40;99.90
21047;DHT22;10682;50.874;3.656;2022-11-15T08:57:51;13.40;99.90
21047;DHT22;10682;50.874;3.656;2022-11-15T09:00:18;13.30;99.90
21047;DHT22;10682;50.874;3.656;2022-11-15T09:02:46;13.50;99.90
21047;DHT22;10682;50.874;3.656;2022-11-15T09:05:13;13.40;99.90
21047;DHT22;10682;50.874;3.656;2022-11-15T09:07:42;13.40;99.90
21047;DHT22;10682;50.874;3.656;2022-11-15T09:10:09;13.30;99.90
21047;DHT22;10682;50.874;3.656;2022-11-15T09:12:37;13.20;99.90
21047;DHT22;10682;50.874;3.656;2022-11-15T09:15:05;13.00;99.90
21047;DHT22;10682;50.874;3.656;2022-11-15T09:17:33;13.10;99.90
21047;DHT22;10682;50.874;3.656;2022-11-15T09:20:00;12.90;99.90
21047;DHT22;10682;50.874;3.656;2022-11-15T09:22:26;12.70;99.90
21047;DHT22;10682;50.874;3.656;2022-11-15T09:24:54;12.60;99.90
21047;DHT22;10682;50.874;3.656;2022-11-15T09:27:21;12.60;99.90
21047;DHT22;10682;50.874;3.656;2022-11-15T09:29:48;12.60;99.90
21047;DHT22;10682;50.874;3.656;2022-11-15T09:32:15;12.50;99.90
21047;DHT22;10682;50.874;3.656;2022-11-15T09:34:42;12.40;99.90
21047;DHT22;10682;50.874;3.656;2022-11-15T09:37:09;12.40;99.90
21047;DHT22;10682;50.874;3.656;2022-11-15T09:39:36;12.50;99.90
21047;DHT22;10682;50.874;3.656;2022-11-15T09:42:09;12.50;99.90
21047;DHT22;10682;50.874;3.656;2022-11-15T09:50:51;12.00;99.90
21047;DHT22;10682;50.874;3.656;2022-11-15T09:53:29;12.00;99.90
21047;DHT22;10682;50.874;3.656;2022-11-15T09:56:27;12.00;99.90
21047;DHT22;10682;50.874;3.656;2022-11-15T10:02:03;12.20;99.90
21047;DHT22;10682;50.874;3.656;2022-11-15T10:04:38;12.40;99.90
21047;DHT22;10682;50.874;3.656;2022-11-15T10:07:19;12.40;99.90
21047;DHT22;10682;50.874;3.656;2022-11-15T10:09:54;12.60;99.90
21047;DHT22;10682;50.874;3.656;2022-11-15T10:12:48;12.80;99.90
21047;DHT22;10682;50.874;3.656;2022-11-15T10:15:17;12.90;99.90
21047;DHT22;10682;50.874;3.656;2022-11-15T10:20:53;13.10;99.90
21047;DHT22;10682;50.874;3.656;2022-11-15T10:23:23;13.10;99.90
21047;DHT22;10682;50.874;3.656;2022-11-15T10:25:53;13.00;99.90
21047;DHT22;10682;50.874;3.656;2022-11-15T10:28:27;13.00;99.90
21047;DHT22;10682;50.874;3.656;2022-11-15T10:30:58;12.90;99.90
21047;DHT22;10682;50.874;3.656;2022-11-15T10:33:38;12.80;99.90
21047;DHT22;10682;50.874;3.656;2022-11-15T10:38:52;13.00;99.90
21047;DHT22;10682;50.874;3.656;2022-11-15T10:41:29;13.00;99.90
21047;DHT22;10682;50.874;3.656;2022-11-15T10:49:31;13.10;99.90
21047;DHT22;10682;50.874;3.656;2022-11-15T10:52:03;13.20;99.90
21047;DHT22;10682;50.874;3.656;2022-11-15T10:54:40;13.20;99.90
21047;DHT22;10682;50.874;3.656;2022-11-15T10:57:36;13.20;99.90
21047;DHT22;10682;50.874;3.656;2022-11-15T11:00:28;13.10;99.90
21047;DHT22;10682;50.874;3.656;2022-11-15T11:05:38;13.10;99.90
21047;DHT22;10682;50.874;3.656;2022-11-15T11:10:39;13.30;99.90
21047;DHT22;10682;50.874;3.656;2022-11-15T11:13:37;13.30;99.90
21047;DHT22;10682;50.874;3.656;2022-11-15T11:36:03;13.40;99.90
21047;DHT22;10682;50.874;3.656;2022-11-15T11:42:15;13.10;99.90
21047;DHT22;10682;50.874;3.656;2022-11-15T11:50:42;13.20;99.90
21047;DHT22;10682;50.874;3.656;2022-11-15T11:53:31;13.20;99.90
21047;DHT22;10682;50.874;3.656;2022-11-15T11:56:22;13.20;99.90
21047;DHT22;10682;50.874;3.656;2022-11-15T11:58:56;13.20;99.90
21047;DHT22;10682;50.874;3.656;2022-11-15T12:01:36;13.10;99.90
21047;DHT22;10682;50.874;3.656;2022-11-15T12:04:29;13.10;99.90
21047;DHT22;10682;50.874;3.656;2022-11-15T12:07:21;13.00;99.90
21047;DHT22;10682;50.874;3.656;2022-11-15T12:10:15;13.00;99.90
21047;DHT22;10682;50.874;3.656;2022-11-15T12:12:47;13.00;99.90
21047;DHT22;10682;50.874;3.656;2022-11-15T12:15:56;13.00;99.90
21047;DHT22;10682;50.874;3.656;2022-11-15T12:18:20;13.00;99.90
21047;DHT22;10682;50.874;3.656;2022-11-15T12:21:13;13.00;99.90
21047;DHT22;10682;50.874;3.656;2022-11-15T12:23:53;13.00;99.90
21047;DHT22;10682;50.874;3.656;2022-11-15T12:26:33;13.00;99.90
21047;DHT22;10682;50.874;3.656;2022-11-15T12:29:16;13.10;99.90
21047;DHT22;10682;50.874;3.656;2022-11-15T12:32:05;13.10;99.90
21047;DHT22;10682;50.874;3.656;2022-11-15T12:34:52;13.10;99.90
21047;DHT22;10682;50.874;3.656;2022-11-15T12:45:42;13.20;99.90
21047;DHT22;10682;50.874;3.656;2022-11-15T12:58:43;13.30;99.90
21047;DHT22;10682;50.874;3.656;2022-11-15T13:19:48;13.40;99.90
21047;DHT22;10682;50.874;3.656;2022-11-15T13:22:38;13.30;99.90
21047;DHT22;10682;50.874;3.656;2022-11-15T13:30:37;13.30;99.90
21047;DHT22;10682;50.874;3.656;2022-11-15T13:33:13;13.30;99.90
21047;DHT22;10682;50.874;3.656;2022-11-15T13:35:46;13.30;99.90
21047;DHT22;10682;50.874;3.656;2022-11-15T13:40:51;13.10;99.90
21047;DHT22;10682;50.874;3.656;2022-11-15T13:46:27;13.10;99.90
21047;DHT22;10682;50.874;3.656;2022-11-15T13:49:00;13.10;99.90
21047;DHT22;10682;50.874;3.656;2022-11-15T13:51:37;12.90;99.90
21047;DHT22;10682;50.874;3.656;2022-11-15T13:54:32;12.90;99.90
21047;DHT22;10682;50.874;3.656;2022-11-15T14:00:01;12.70;99.90
21047;DHT22;10682;50.874;3.656;2022-11-15T14:02:32;12.70;99.90
21047;DHT22;10682;50.874;3.656;2022-11-15T14:05:19;12.60;99.90
21047;DHT22;10682;50.874;3.656;2022-11-15T14:07:56;12.60;99.90
21047;DHT22;10682;50.874;3.656;2022-11-15T14:10:35;12.50;99.90
21047;DHT22;10682;50.874;3.656;2022-11-15T14:13:27;12.50;99.90
21047;DHT22;10682;50.874;3.656;2022-11-15T14:16:12;12.40;99.90
21047;DHT22;10682;50.874;3.656;2022-11-15T14:18:51;12.30;99.90
21047;DHT22;10682;50.874;3.656;2022-11-15T14:21:19;12.40;99.90
21047;DHT22;10682;50.874;3.656;2022-11-15T14:23:47;12.30;99.90
21047;DHT22;10682;50.874;3.656;2022-11-15T14:26:33;12.20;99.90
21047;DHT22;10682;50.874;3.656;2022-11-15T14:29:29;12.10;99.90
21047;DHT22;10682;50.874;3.656;2022-11-15T14:32:17;12.10;99.90
21047;DHT22;10682;50.874;3.656;2022-11-15T14:34:53;12.00;99.90
21047;DHT22;10682;50.874;3.656;2022-11-15T14:37:26;12.00;99.90
21047;DHT22;10682;50.874;3.656;2022-11-15T14:40:03;12.00;99.90
21047;DHT22;10682;50.874;3.656;2022-11-15T14:42:32;12.00;99.90
21047;DHT22;10682;50.874;3.656;2022-11-15T14:44:59;12.00;99.90
21047;DHT22;10682;50.874;3.656;2022-11-15T14:47:26;11.90;99.90
21047;DHT22;10682;50.874;3.656;2022-11-15T14:49:53;11.90;99.90
21047;DHT22;10682;50.874;3.656;2022-11-15T14:52:28;11.90;99.90
21047;DHT22;10682;50.874;3.656;2022-11-15T14:54:59;11.90;99.90
21047;DHT22;10682;50.874;3.656;2022-11-15T14:57:28;11.90;99.90
21047;DHT22;10682;50.874;3.656;2022-11-15T14:59:56;11.90;99.90
21047;DHT22;10682;50.874;3.656;2022-11-15T15:02:25;11.90;99.90
21047;DHT22;10682;50.874;3.656;2022-11-15T15:04:53;11.90;99.90
21047;DHT22;10682;50.874;3.656;2022-11-15T15:07:21;11.90;99.90
21047;DHT22;10682;50.874;3.656;2022-11-15T15:09:48;11.80;99.90
21047;DHT22;10682;50.874;3.656;2022-11-15T15:12:16;11.90;99.90
21047;DHT22;10682;50.874;3.656;2022-11-15T15:14:45;11.90;99.90
21047;DHT22;10682;50.874;3.656;2022-11-15T15:17:12;11.90;99.90
21047;DHT22;10682;50.874;3.656;2022-11-15T15:19:39;12.00;99.90
21047;DHT22;10682;50.874;3.656;2022-11-15T15:22:13;11.90;99.90
21047;DHT22;10682;50.874;3.656;2022-11-15T15:24:43;12.00;99.90
21047;DHT22;10682;50.874;3.656;2022-11-15T15:27:11;12.00;99.90
21047;DHT22;10682;50.874;3.656;2022-11-15T15:29:39;12.00;99.90
21047;DHT22;10682;50.874;3.656;2022-11-15T15:32:06;12.00;99.90
21047;DHT22;10682;50.874;3.656;2022-11-15T15:34:33;12.00;99.90
21047;DHT22;10682;50.874;3.656;2022-11-15T15:39:55;12.10;99.90
21047;DHT22;10682;50.874;3.656;2022-11-15T15:42:23;12.10;99.90
21047;DHT22;10682;50.874;3.656;2022-11-15T15:44:50;12.00;99.90
21047;DHT22;10682;50.874;3.656;2022-11-15T15:47:22;12.10;99.90
21047;DHT22;10682;50.874;3.656;2022-11-15T15:49:50;12.10;99.90
21047;DHT22;10682;50.874;3.656;2022-11-15T15:52:17;12.10;99.90
21047;DHT22;10682;50.874;3.656;2022-11-15T15:54:44;12.10;99.90
21047;DHT22;10682;50.874;3.656;2022-11-15T15:57:13;12.10;99.90
21047;DHT22;10682;50.874;3.656;2022-11-15T15:59:40;12.10;99.90
21047;DHT22;10682;50.874;3.656;2022-11-15T16:02:12;12.10;99.90
21047;DHT22;10682;50.874;3.656;2022-11-15T16:04:40;12.10;99.90
21047;DHT22;10682;50.874;3.656;2022-11-15T16:07:17;12.20;99.90
21047;DHT22;10682;50.874;3.656;2022-11-15T16:09:55;12.20;99.90
21047;DHT22;10682;50.874;3.656;2022-11-15T16:14:58;12.10;99.90
21047;DHT22;10682;50.874;3.656;2022-11-15T16:17:35;12.20;99.90
21047;DHT22;10682;50.874;3.656;2022-11-15T16:20:05;12.10;99.90
21047;DHT22;10682;50.874;3.656;2022-11-15T16:22:32;12.20;99.90
21047;DHT22;10682;50.874;3.656;2022-11-15T16:24:59;12.20;99.90
21047;DHT22;10682;50.874;3.656;2022-11-15T16:27:26;12.20;99.90
21047;DHT22;10682;50.874;3.656;2022-11-15T16:29:53;12.20;99.90
21047;DHT22;10682;50.874;3.656;2022-11-15T16:32:22;12.20;99.90
21047;DHT22;10682;50.874;3.656;2022-11-15T16:34:50;12.20;99.90
21047;DHT22;10682;50.874;3.656;2022-11-15T16:37:22;12.20;99.90
21047;DHT22;10682;50.874;3.656;2022-11-15T16:39:50;12.20;99.90
21047;DHT22;10682;50.874;3.656;2022-11-15T16:42:17;12.20;99.90
21047;DHT22;10682;50.874;3.656;2022-11-15T16:44:44;12.20;99.90
21047;DHT22;10682;50.874;3.656;2022-11-15T16:47:17;12.30;99.90
21047;DHT22;10682;50.874;3.656;2022-11-15T16:49:48;12.20;99.90
21047;DHT22;10682;50.874;3.656;2022-11-15T16:52:15;12.20;99.90
21047;DHT22;10682;50.874;3.656;2022-11-15T16:54:47;12.20;99.90
21047;DHT22;10682;50.874;3.656;2022-11-15T16:57:14;12.20;99.90
21047;DHT22;10682;50.874;3.656;2022-11-15T16:59:42;12.20;99.90
21047;DHT22;10682;50.874;3.656;2022-11-15T17:02:11;12.20;99.90
21047;DHT22;10682;50.874;3.656;2022-11-15T17:04:38;12.20;99.90
21047;DHT22;10682;50.874;3.656;2022-11-15T17:07:05;12.20;99.90
21047;DHT22;10682;50.874;3.656;2022-11-15T17:09:32;12.20;99.90
21047;DHT22;10682;50.874;3.656;2022-11-15T17:12:00;12.20;99.90
21047;DHT22;10682;50.874;3.656;2022-11-15T17:14:26;12.10;99.90
21047;DHT22;10682;50.874;3.656;2022-11-15T17:16:53;12.20;99.90
21047;DHT22;10682;50.874;3.656;2022-11-15T17:19:23;12.20;99.90
21047;DHT22;10682;50.874;3.656;2022-11-15T17:21:50;12.10;99.90
21047;DHT22;10682;50.874;3.656;2022-11-15T17:24:17;12.10;99.90
21047;DHT22;10682;50.874;3.656;2022-11-15T17:26:46;12.10;99.90
21047;DHT22;10682;50.874;3.656;2022-11-15T17:29:13;12.20;99.90
21047;DHT22;10682;50.874;3.656;2022-11-15T17:31:41;12.20;99.90
21047;DHT22;10682;50.874;3.656;2022-11-15T17:34:09;12.20;99.90
21047;DHT22;10682;50.874;3.656;2022-11-15T17:36:36;12.10;99.90
21047;DHT22;10682;50.874;3.656;2022-11-15T17:39:03;12.20;99.90
21047;DHT22;10682;50.874;3.656;2022-11-15T17:41:30;12.20;99.90
21047;DHT22;10682;50.874;3.656;2022-11-15T17:43:58;12.20;99.90
21047;DHT22;10682;50.874;3.656;2022-11-15T17:46:26;12.20;99.90
21047;DHT22;10682;50.874;3.656;2022-11-15T17:48:55;12.30;99.90
21047;DHT22;10682;50.874;3.656;2022-11-15T17:51:22;12.30;99.90
21047;DHT22;10682;50.874;3.656;2022-11-15T17:53:50;12.30;99.90
21047;DHT22;10682;50.874;3.656;2022-11-15T17:56:22;12.30;99.90
21047;DHT22;10682;50.874;3.656;2022-11-15T17:58:50;12.30;99.90
21047;DHT22;10682;50.874;3.656;2022-11-15T18:01:23;12.30;99.90
21047;DHT22;10682;50.874;3.656;2022-11-15T18:03:55;12.30;99.90
21047;DHT22;10682;50.874;3.656;2022-11-15T18:06:26;12.30;99.90
21047;DHT22;10682;50.874;3.656;2022-11-15T18:08:56;12.30;99.90
21047;DHT22;10682;50.874;3.656;2022-11-15T18:11:26;12.40;99.90
21047;DHT22;10682;50.874;3.656;2022-11-15T18:13:57;12.50;99.90
21047;DHT22;10682;50.874;3.656;2022-11-15T18:16:32;12.50;99.90
21047;DHT22;10682;50.874;3.656;2022-11-15T18:19:03;12.50;99.90
21047;DHT22;10682;50.874;3.656;2022-11-15T18:21:34;12.50;99.90
21047;DHT22;10682;50.874;3.656;2022-11-15T18:24:30;12.50;99.90